MA34 weather

Moore Dogs Heliport
Carver, Massachusetts, United States

Public forecast

Using degrees Fahrenheit for public forecast. Weather courtesy of forecast.io.

METAR (pilot weather report)

Closest report is Plymouth Municipal Airport, 3.5 nm (6.4 km) ESE. Retrieved 2019/09/19 08:52 UTC (31 minutes ago):

KPYM 190852Z AUTO 00000KT 10SM CLR 08/06 A3030 RMK AO2 SLP262 T00830056 55001

TAF (pilot weather forecast)

Closest forecast is Cape Cod Coast Guard Air Station, 20.4 nm (37.8 km) SE. Retrieved 2019/09/19 06:22 UTC (3 hours ago):

TAF KFMH 190520Z 1906/2006 06013KT P6SM FEW030 FM191100 03008KT P6SM FEW250 FM200100 00000KT P6SM FEW250